Time;durP1;ratioP1;P1;durP2;ratioP2;P2;SDS_P1;SDS_P2;PMS_P1;PMS_P2;Temp;Humidity;BMP_temperature;BMP_pressure;BME280_temperature;BME280_humidity;BME280_pressure;Samples;Min_cycle;Max_cycle;Signal;HPM_P1;HPM_P2
2024/01/23 00:01:14;;;;;;;26.13;13.07;;;2.20;63.20;;;;;;4868278;28;114482;-80
2024/01/23 00:03:42;;;;;;;20.42;12.20;;;2.20;63.00;;;;;;4867036;28;115124;-80
2024/01/23 00:06:10;;;;;;;20.35;11.80;;;2.20;63.00;;;;;;4884291;28;114667;-80
2024/01/23 00:08:37;;;;;;;19.85;10.18;;;2.20;63.00;;;;;;4871337;28;114574;-80
2024/01/23 00:11:05;;;;;;;18.52;11.50;;;2.20;62.80;;;;;;4871131;28;115006;-80
2024/01/23 00:13:33;;;;;;;19.50;10.90;;;2.20;62.80;;;;;;4869376;28;115157;-80
2024/01/23 00:16:00;;;;;;;22.75;10.80;;;2.20;62.80;;;;;;4853816;28;115146;-80
2024/01/23 00:18:27;;;;;;;17.80;9.90;;;2.20;62.80;;;;;;4871209;28;114484;-80
2024/01/23 00:20:56;;;;;;;19.25;9.77;;;2.20;62.80;;;;;;4871533;28;114482;-81
2024/01/23 00:23:23;;;;;;;20.52;11.65;;;2.20;62.70;;;;;;4869534;28;115098;-80
2024/01/23 00:25:52;;;;;;;18.48;10.25;;;2.20;62.70;;;;;;4884667;28;114712;-80
2024/01/23 00:28:20;;;;;;;17.23;9.65;;;2.20;62.80;;;;;;4870905;28;114470;-80
2024/01/23 00:30:47;;;;;;;17.40;9.75;;;2.20;62.80;;;;;;4870832;28;114472;-80
2024/01/23 00:33:14;;;;;;;17.10;9.32;;;2.20;62.90;;;;;;4870149;28;115011;-81
2024/01/23 00:35:42;;;;;;;15.68;9.88;;;2.20;62.80;;;;;;4884641;28;115282;-81
2024/01/23 00:38:09;;;;;;;17.40;9.80;;;2.20;62.90;;;;;;4870916;28;114454;-80
2024/01/23 00:40:36;;;;;;;16.20;9.90;;;2.20;62.90;;;;;;4871286;28;114576;-80
2024/01/23 00:43:04;;;;;;;15.57;9.20;;;2.20;63.10;;;;;;4868113;28;115091;-80
2024/01/23 00:45:31;;;;;;;17.70;10.43;;;2.20;63.00;;;;;;4869709;28;114643;-80
2024/01/23 00:48:00;;;;;;;25.55;12.57;;;2.20;63.20;;;;;;4884587;28;114384;-80
2024/01/23 00:50:27;;;;;;;22.48;11.52;;;2.10;63.50;;;;;;4884884;28;114656;-81
2024/01/23 00:52:55;;;;;;;17.70;9.68;;;2.10;63.30;;;;;;4885149;28;115189;-81
2024/01/23 00:55:23;;;;;;;15.00;8.52;;;2.10;63.50;;;;;;4891012;28;117281;-81
2024/01/23 00:57:50;;;;;;;18.02;9.38;;;2.10;63.40;;;;;;4891407;28;114755;-81
2024/01/23 01:00:18;;;;;;;17.95;9.65;;;2.10;63.40;;;;;;4885056;28;115048;-82
2024/01/23 01:02:46;;;;;;;15.65;9.20;;;2.10;63.30;;;;;;4869188;28;116820;-81
2024/01/23 01:05:13;;;;;;;17.10;10.60;;;2.10;63.30;;;;;;4884409;28;114553;-81
2024/01/23 01:07:43;;;;;;;17.27;9.73;;;2.10;63.40;;;;;;4884993;28;114533;-81
2024/01/23 01:10:10;;;;;;;15.38;9.63;;;2.20;63.30;;;;;;4868981;28;114854;-81
2024/01/23 01:12:37;;;;;;;17.05;8.65;;;2.10;63.40;;;;;;4868740;28;115556;-82
2024/01/23 01:15:05;;;;;;;16.05;10.13;;;2.20;63.40;;;;;;4884724;28;114669;-81
2024/01/23 01:17:33;;;;;;;18.88;9.70;;;2.20;63.40;;;;;;4869376;28;114353;-82
2024/01/23 01:20:00;;;;;;;17.98;9.25;;;2.20;63.30;;;;;;4882157;28;114708;-81
2024/01/23 01:22:28;;;;;;;17.05;9.07;;;2.20;63.30;;;;;;4880986;28;115732;-81
2024/01/23 01:24:55;;;;;;;17.48;9.10;;;2.20;63.10;;;;;;4848997;29;114689;-81
2024/01/23 01:27:23;;;;;;;19.73;10.27;;;2.20;63.00;;;;;;4834351;29;114836;-81
2024/01/23 01:29:50;;;;;;;16.60;8.95;;;2.20;63.10;;;;;;4851422;28;114371;-81
2024/01/23 01:32:19;;;;;;;18.15;9.90;;;2.20;63.10;;;;;;4849049;29;115073;-81
2024/01/23 01:34:46;;;;;;;16.13;9.65;;;2.20;63.20;;;;;;4848882;29;114729;-81
2024/01/23 01:37:14;;;;;;;16.75;9.98;;;2.20;63.10;;;;;;4833666;29;114499;-81
2024/01/23 01:39:41;;;;;;;20.95;9.85;;;2.20;63.20;;;;;;4849985;29;114650;-80
2024/01/23 01:42:09;;;;;;;19.50;10.75;;;2.10;63.40;;;;;;4847840;29;115291;-80
2024/01/23 01:44:36;;;;;;;18.15;10.15;;;2.00;63.30;;;;;;4864290;28;115366;-80
2024/01/23 01:47:05;;;;;;;18.70;10.15;;;2.10;63.40;;;;;;4834026;29;114403;-80
2024/01/23 01:49:32;;;;;;;24.15;10.18;;;2.10;63.40;;;;;;4865717;28;114644;-79
2024/01/23 01:51:59;;;;;;;17.15;10.00;;;2.10;63.40;;;;;;4820025;29;115882;-80
2024/01/23 01:54:27;;;;;;;21.20;9.88;;;2.10;63.40;;;;;;4850812;29;114622;-80
2024/01/23 01:56:55;;;;;;;15.70;8.35;;;2.10;63.40;;;;;;4850231;29;114475;-80
2024/01/23 01:59:23;;;;;;;17.48;9.35;;;2.10;63.50;;;;;;4834838;29;114852;-80
2024/01/23 02:01:50;;;;;;;20.50;10.85;;;2.00;63.40;;;;;;4851067;29;115405;-80
2024/01/23 02:04:17;;;;;;;18.23;9.45;;;2.00;63.50;;;;;;4849591;29;116043;-80
2024/01/23 02:06:46;;;;;;;18.98;10.68;;;2.10;63.50;;;;;;4851968;28;114381;-81
2024/01/23 02:09:16;;;;;;;17.38;9.35;;;2.10;63.60;;;;;;4835536;29;114592;-80
2024/01/23 02:12:00;;;;;;;22.00;10.93;;;2.10;63.70;;;;;;4864152;28;117794;-80
2024/01/23 02:14:31;;;;;;;20.80;9.68;;;2.00;63.90;;;;;;4848228;29;116323;-81
2024/01/23 02:16:58;;;;;;;16.85;9.38;;;1.90;63.70;;;;;;4850697;28;114419;-81
2024/01/23 02:19:26;;;;;;;20.58;10.30;;;2.00;63.70;;;;;;4849674;28;114532;-81
2024/01/23 02:21:54;;;;;;;18.30;11.00;;;2.00;63.80;;;;;;4849599;29;115036;-82
2024/01/23 02:24:21;;;;;;;20.63;11.50;;;2.10;63.80;;;;;;4849281;29;114653;-82
2024/01/23 02:26:49;;;;;;;21.73;11.98;;;2.10;63.80;;;;;;4833251;29;114563;-81
2024/01/23 02:29:16;;;;;;;16.80;10.48;;;2.20;63.60;;;;;;4849159;29;114718;-80
2024/01/23 02:31:43;;;;;;;19.05;10.45;;;2.20;63.50;;;;;;4849450;28;115019;-81
2024/01/23 02:34:11;;;;;;;14.32;8.85;;;2.30;63.40;;;;;;4850041;28;114590;-81
2024/01/23 02:36:41;;;;;;;17.67;10.07;;;2.30;63.30;;;;;;4850872;28;115254;-81
2024/01/23 02:39:08;;;;;;;19.92;11.68;;;2.30;63.40;;;;;;4849592;29;114937;-82
2024/01/23 02:41:36;;;;;;;17.90;10.85;;;2.20;63.50;;;;;;4860545;28;116764;-81
2024/01/23 02:44:03;;;;;;;19.65;10.80;;;2.30;63.50;;;;;;4850945;28;114758;-81
2024/01/23 02:46:30;;;;;;;20.58;11.70;;;2.30;63.50;;;;;;4885357;28;114460;-80
2024/01/23 02:48:58;;;;;;;21.90;11.38;;;2.30;63.50;;;;;;4888299;28;114620;-81
2024/01/23 02:51:25;;;;;;;20.98;10.95;;;2.40;63.60;;;;;;4886656;28;115066;-81
2024/01/23 02:53:53;;;;;;;25.30;13.25;;;2.40;63.60;;;;;;4885578;28;114705;-82
2024/01/23 02:56:20;;;;;;;30.75;17.02;;;2.50;63.60;;;;;;4886423;28;114584;-82
2024/01/23 02:58:47;;;;;;;29.60;15.95;;;2.50;63.60;;;;;;4887884;28;114639;-82
2024/01/23 03:01:15;;;;;;;27.27;15.77;;;2.50;63.60;;;;;;4885848;28;115718;-82
2024/01/23 03:03:43;;;;;;;28.45;15.25;;;2.40;63.70;;;;;;4886730;28;114817;-82
2024/01/23 03:06:10;;;;;;;25.67;14.35;;;2.40;63.80;;;;;;4887141;28;114716;-82
2024/01/23 03:08:37;;;;;;;28.65;14.27;;;2.50;63.80;;;;;;4888462;28;114621;-82
2024/01/23 03:11:04;;;;;;;29.08;13.82;;;2.40;63.80;;;;;;4886832;28;115464;-81
2024/01/23 03:13:32;;;;;;;30.02;13.20;;;2.40;63.80;;;;;;4886769;28;114654;-80
2024/01/23 03:15:59;;;;;;;28.05;13.32;;;2.40;63.80;;;;;;4870486;28;114632;-81
2024/01/23 03:18:26;;;;;;;32.50;14.45;;;2.40;63.70;;;;;;4887223;28;114469;-81
2024/01/23 03:20:54;;;;;;;32.58;13.95;;;2.30;63.60;;;;;;4886702;28;115217;-81
2024/01/23 03:23:21;;;;;;;33.58;14.70;;;2.30;63.60;;;;;;4886563;28;114598;-81
2024/01/23 03:25:49;;;;;;;32.35;14.68;;;2.30;63.50;;;;;;4869947;28;114731;-81
2024/01/23 03:28:16;;;;;;;32.90;14.98;;;2.20;63.50;;;;;;4901995;28;114646;-81
2024/01/23 03:30:43;;;;;;;26.75;14.13;;;2.30;63.50;;;;;;4869534;28;115120;-81
2024/01/23 03:33:11;;;;;;;23.60;12.90;;;2.40;63.70;;;;;;4869911;28;114659;-80
2024/01/23 03:35:39;;;;;;;24.48;12.43;;;2.20;63.50;;;;;;4870318;28;114591;-80
2024/01/23 03:38:06;;;;;;;22.88;13.13;;;2.20;63.40;;;;;;4885908;28;114591;-80
2024/01/23 03:40:34;;;;;;;21.02;11.82;;;2.20;63.50;;;;;;4870741;28;115163;-81
2024/01/23 03:43:01;;;;;;;22.27;12.05;;;2.20;63.60;;;;;;4887808;28;115426;-81
2024/01/23 03:45:28;;;;;;;21.00;11.32;;;2.20;63.50;;;;;;4889097;28;114640;-80
2024/01/23 03:47:56;;;;;;;19.60;10.90;;;2.30;63.50;;;;;;4873310;28;114627;-81
2024/01/23 03:50:23;;;;;;;24.40;12.55;;;2.30;63.50;;;;;;4888197;28;115460;-81
2024/01/23 03:52:51;;;;;;;20.45;11.55;;;2.20;63.50;;;;;;4888201;28;114821;-81
2024/01/23 03:55:18;;;;;;;19.90;10.60;;;2.20;63.50;;;;;;4873471;28;114523;-81
2024/01/23 03:57:45;;;;;;;22.83;10.00;;;2.10;63.70;;;;;;4889499;28;114735;-82
2024/01/23 04:00:14;;;;;;;17.65;10.32;;;2.00;63.70;;;;;;4872175;28;115109;-81
2024/01/23 04:02:42;;;;;;;18.02;10.73;;;1.90;63.80;;;;;;4872476;28;115410;-81
2024/01/23 04:05:10;;;;;;;18.98;11.10;;;2.00;64.10;;;;;;4872593;28;114607;-80
2024/01/23 04:07:37;;;;;;;20.27;11.32;;;1.90;64.00;;;;;;4873160;28;114418;-81
2024/01/23 04:10:05;;;;;;;18.35;10.18;;;1.90;64.10;;;;;;4889246;28;115124;-80
2024/01/23 04:12:33;;;;;;;21.50;10.95;;;1.80;64.10;;;;;;4872033;28;115765;-81
2024/01/23 04:15:00;;;;;;;19.48;10.73;;;1.80;64.10;;;;;;4872905;28;114556;-82
2024/01/23 04:17:28;;;;;;;21.63;11.88;;;1.90;64.00;;;;;;4889001;28;115071;-81
2024/01/23 04:19:56;;;;;;;20.23;10.88;;;1.90;64.00;;;;;;4889125;28;116647;-80
2024/01/23 04:22:23;;;;;;;19.73;11.52;;;1.90;64.00;;;;;;4891161;28;114774;-81
2024/01/23 04:24:53;;;;;;;21.08;12.05;;;2.00;63.90;;;;;;4893937;28;114686;-80
2024/01/23 04:27:20;;;;;;;15.20;9.50;;;1.90;63.80;;;;;;4885493;28;114813;-79
2024/01/23 04:29:47;;;;;;;18.90;10.73;;;1.90;63.70;;;;;;4902531;28;114651;-80
2024/01/23 04:32:15;;;;;;;20.70;11.43;;;1.90;63.80;;;;;;4858612;28;114927;-79
2024/01/23 04:34:42;;;;;;;18.88;10.57;;;1.90;63.90;;;;;;4891301;28;114578;-79
2024/01/23 04:37:09;;;;;;;15.88;9.55;;;1.90;63.90;;;;;;4891081;28;114652;-80
2024/01/23 04:39:37;;;;;;;17.27;9.65;;;1.80;63.80;;;;;;4889837;28;114437;-80
2024/01/23 04:42:04;;;;;;;20.42;10.75;;;1.80;63.90;;;;;;4887916;28;115010;-80
2024/01/23 04:44:32;;;;;;;21.15;11.98;;;1.80;63.90;;;;;;4890119;28;114507;-80
2024/01/23 04:46:59;;;;;;;22.05;11.52;;;1.90;63.90;;;;;;4891038;28;114435;-80
2024/01/23 04:49:27;;;;;;;19.05;11.23;;;1.90;63.90;;;;;;4873091;28;115038;-81
2024/01/23 04:51:54;;;;;;;20.30;10.25;;;1.90;63.80;;;;;;4887711;28;115489;-81
2024/01/23 04:54:23;;;;;;;21.63;11.07;;;1.90;63.80;;;;;;4872542;28;114674;-81
2024/01/23 04:56:51;;;;;;;20.77;10.52;;;1.90;63.90;;;;;;4889008;28;114585;-80
2024/01/23 04:59:18;;;;;;;20.17;10.38;;;1.90;63.80;;;;;;4887691;28;115090;-80
2024/01/23 05:01:45;;;;;;;22.48;11.73;;;2.00;63.80;;;;;;4886443;28;115218;-82
2024/01/23 05:04:13;;;;;;;20.67;11.88;;;2.00;63.90;;;;;;4872573;28;114770;-80
2024/01/23 05:06:43;;;;;;;17.58;9.80;;;2.00;63.80;;;;;;4888205;28;114405;-81
2024/01/23 05:09:11;;;;;;;21.45;10.88;;;2.00;63.80;;;;;;4871582;28;114999;-81
2024/01/23 05:11:38;;;;;;;21.33;11.55;;;2.00;63.90;;;;;;4887568;28;114685;-81
2024/01/23 05:14:05;;;;;;;21.15;12.60;;;2.00;63.90;;;;;;4889541;28;114600;-82
2024/01/23 05:16:34;;;;;;;18.95;10.13;;;2.00;64.00;;;;;;4889319;28;114787;-82
2024/01/23 05:19:01;;;;;;;23.75;11.82;;;1.90;64.20;;;;;;4883103;28;115221;-82
2024/01/23 05:21:29;;;;;;;21.25;11.75;;;1.90;64.10;;;;;;4850854;29;114628;-81
2024/01/23 05:23:56;;;;;;;19.33;10.57;;;1.90;64.30;;;;;;4865601;28;114454;-81
2024/01/23 05:26:24;;;;;;;21.80;11.43;;;1.90;64.30;;;;;;4850159;29;114802;-81
2024/01/23 05:28:51;;;;;;;20.15;11.23;;;1.90;64.50;;;;;;4850582;28;115147;-81
2024/01/23 05:31:21;;;;;;;14.43;8.50;;;1.90;64.60;;;;;;4849416;29;114679;-81
2024/01/23 05:33:48;;;;;;;19.25;10.35;;;1.80;64.40;;;;;;4851410;28;114711;-81
2024/01/23 05:36:17;;;;;;;23.58;12.13;;;1.80;64.40;;;;;;4850000;29;114582;-81
2024/01/23 05:38:45;;;;;;;21.92;12.60;;;1.80;64.50;;;;;;4848902;29;115420;-82
2024/01/23 05:41:12;;;;;;;21.35;10.93;;;1.80;64.50;;;;;;4848819;29;115197;-81
2024/01/23 05:43:39;;;;;;;19.55;12.02;;;1.80;64.60;;;;;;4849156;29;114732;-81
2024/01/23 05:46:07;;;;;;;20.60;12.23;;;1.80;64.50;;;;;;4818445;29;114889;-81
2024/01/23 05:48:34;;;;;;;22.63;11.85;;;1.90;64.60;;;;;;4849971;29;115044;-82
2024/01/23 05:51:02;;;;;;;21.60;12.07;;;1.90;64.60;;;;;;4849866;29;114720;-81
2024/01/23 05:53:29;;;;;;;23.98;12.85;;;2.00;64.40;;;;;;4849568;29;114593;-81
2024/01/23 05:55:56;;;;;;;26.58;13.40;;;2.00;64.40;;;;;;4849495;29;114501;-81
2024/01/23 05:58:24;;;;;;;27.17;14.07;;;2.00;64.30;;;;;;4847981;29;115103;-82
2024/01/23 06:00:51;;;;;;;22.88;11.45;;;2.00;64.30;;;;;;4864482;28;114715;-83
2024/01/23 06:03:19;;;;;;;20.73;12.82;;;2.00;64.20;;;;;;4848823;29;114479;-81
2024/01/23 06:05:46;;;;;;;21.65;13.00;;;2.00;64.30;;;;;;4864532;28;114546;-81
2024/01/23 06:08:14;;;;;;;23.63;13.27;;;2.00;64.20;;;;;;4849348;29;115783;-81
2024/01/23 06:10:42;;;;;;;27.25;13.77;;;2.10;64.30;;;;;;4848556;29;114640;-82
2024/01/23 06:13:09;;;;;;;24.83;14.00;;;2.10;64.20;;;;;;4866209;28;114669;-82
2024/01/23 06:15:36;;;;;;;22.42;12.27;;;2.10;64.20;;;;;;4872773;28;114292;-82
2024/01/23 06:18:07;;;;;;;24.98;13.57;;;2.10;64.20;;;;;;4859065;29;114325;-82
2024/01/23 06:20:37;;;;;;;27.83;13.50;;;2.10;64.30;;;;;;4850864;28;115095;-81
2024/01/23 06:23:04;;;;;;;36.35;17.17;;;2.10;64.30;;;;;;4865084;28;114541;-81
2024/01/23 06:25:32;;;;;;;59.45;20.65;;;2.10;64.20;;;;;;4849452;29;114711;-81
2024/01/23 06:28:00;;;;;;;37.58;17.20;;;2.20;64.20;;;;;;4849796;29;115064;-81
2024/01/23 06:30:29;;;;;;;35.63;16.40;;;2.20;64.20;;;;;;4831922;29;119434;-82
2024/01/23 06:32:57;;;;;;;26.15;13.57;;;2.20;64.20;;;;;;4832876;29;114565;-82
2024/01/23 06:35:25;;;;;;;29.02;14.40;;;2.20;64.40;;;;;;4864371;28;114614;-82
2024/01/23 06:37:53;;;;;;;25.30;12.60;;;2.20;64.40;;;;;;4847754;29;118638;-82
2024/01/23 06:40:20;;;;;;;32.60;14.48;;;2.20;64.40;;;;;;4847733;29;118002;-81
2024/01/23 06:42:48;;;;;;;24.70;13.27;;;2.30;64.30;;;;;;4848636;29;114634;-83
2024/01/23 06:45:15;;;;;;;21.48;12.32;;;2.30;64.40;;;;;;4849072;29;114703;-81
2024/01/23 06:47:42;;;;;;;25.35;13.55;;;2.30;64.30;;;;;;4849028;29;115254;-82
2024/01/23 06:50:11;;;;;;;26.80;14.10;;;2.30;64.30;;;;;;4863769;28;115004;-83
2024/01/23 06:52:38;;;;;;;25.50;14.13;;;2.20;64.10;;;;;;4833223;29;114434;-82
2024/01/23 06:55:06;;;;;;;25.05;13.13;;;2.20;64.10;;;;;;4833164;29;114738;-82
2024/01/23 06:57:33;;;;;;;27.08;14.70;;;2.20;64.10;;;;;;4847015;29;116240;-82
2024/01/23 07:00:01;;;;;;;24.75;14.30;;;2.10;64.00;;;;;;4849814;28;114669;-82
2024/01/23 07:02:28;;;;;;;28.83;14.70;;;2.10;64.20;;;;;;4833448;29;114468;-81
2024/01/23 07:04:57;;;;;;;33.10;14.50;;;2.00;64.10;;;;;;4834683;29;114513;-81
2024/01/23 07:07:24;;;;;;;29.92;14.27;;;2.00;64.20;;;;;;4855816;28;116104;-82
2024/01/23 07:09:52;;;;;;;31.65;16.25;;;2.00;64.20;;;;;;4862442;28;115808;-82
2024/01/23 07:12:20;;;;;;;31.40;16.10;;;2.00;64.30;;;;;;4861545;28;114706;-81
2024/01/23 07:14:48;;;;;;;33.78;16.60;;;2.00;64.20;;;;;;4847618;28;114833;-82
2024/01/23 07:17:16;;;;;;;32.40;16.55;;;2.00;64.20;;;;;;4867947;28;115176;-82
2024/01/23 07:19:46;;;;;;;34.00;17.25;;;2.10;64.30;;;;;;4869791;28;114616;-83
2024/01/23 07:22:17;;;;;;;28.85;16.60;;;2.10;64.20;;;;;;4852063;28;114860;-82
2024/01/23 07:24:45;;;;;;;26.38;12.98;;;2.10;64.10;;;;;;4850135;28;114610;-82
2024/01/23 07:27:12;;;;;;;29.80;15.88;;;2.20;64.20;;;;;;4861069;28;115126;-82
2024/01/23 07:29:40;;;;;;;27.13;14.82;;;2.20;64.00;;;;;;4860927;28;114626;-82
2024/01/23 07:32:07;;;;;;;30.23;15.15;;;2.40;64.10;;;;;;4870989;28;115455;-80
2024/01/23 07:34:35;;;;;;;30.45;14.75;;;2.40;63.90;;;;;;4856991;28;114596;-81
2024/01/23 07:37:04;;;;;;;28.48;16.15;;;2.50;63.80;;;;;;4870623;28;116625;-81
2024/01/23 07:39:31;;;;;;;26.00;14.57;;;2.60;63.70;;;;;;4861796;28;115765;-80
2024/01/23 07:42:02;;;;;;;26.15;13.88;;;2.70;63.60;;;;;;4876951;28;114602;-83
2024/01/23 07:44:38;;;;;;;32.58;15.60;;;2.70;63.40;;;;;;4861877;28;114777;-83
2024/01/23 07:47:05;;;;;;;24.40;13.65;;;2.60;63.30;;;;;;4866170;28;115007;-82
2024/01/23 07:49:33;;;;;;;23.95;12.75;;;2.60;63.30;;;;;;4857138;28;114570;-82
2024/01/23 07:52:01;;;;;;;26.38;13.60;;;2.50;63.40;;;;;;4868859;28;114759;-83
2024/01/23 07:54:32;;;;;;;26.52;14.18;;;2.40;63.50;;;;;;4840421;28;114472;-81
2024/01/23 07:57:02;;;;;;;25.35;14.20;;;2.40;63.50;;;;;;4864118;28;115585;-82
2024/01/23 07:59:31;;;;;;;28.40;14.85;;;2.30;63.80;;;;;;4864914;28;114643;-82
2024/01/23 08:01:58;;;;;;;29.50;14.82;;;2.40;64.10;;;;;;4864902;28;114446;-81
2024/01/23 08:04:26;;;;;;;26.50;14.27;;;2.50;64.20;;;;;;4865979;28;114536;-82
2024/01/23 08:06:56;;;;;;;27.98;14.55;;;2.60;64.20;;;;;;4857663;28;118160;-82
2024/01/23 08:09:24;;;;;;;27.10;14.93;;;2.70;64.00;;;;;;4883136;28;114517;-83
2024/01/23 08:11:52;;;;;;;30.20;16.17;;;2.70;64.10;;;;;;4881036;28;114580;-83
2024/01/23 08:14:20;;;;;;;31.27;16.10;;;2.70;64.40;;;;;;4867582;28;114718;-82
2024/01/23 08:16:48;;;;;;;25.20;13.30;;;2.80;64.50;;;;;;4866690;28;116278;-81
2024/01/23 08:19:15;;;;;;;30.83;16.95;;;2.80;64.30;;;;;;4865522;28;114666;-83
2024/01/23 08:21:43;;;;;;;27.83;14.85;;;2.80;64.40;;;;;;4866054;28;114692;-83
2024/01/23 08:24:10;;;;;;;25.98;13.30;;;2.90;64.30;;;;;;4856488;28;114618;-82
2024/01/23 08:26:38;;;;;;;25.77;13.70;;;2.90;64.10;;;;;;4868026;28;115226;-82
2024/01/23 08:29:07;;;;;;;27.75;14.52;;;2.80;64.20;;;;;;4857082;28;116000;-83
2024/01/23 08:31:35;;;;;;;25.33;13.35;;;2.80;64.30;;;;;;4856831;28;114757;-82
2024/01/23 08:34:03;;;;;;;28.38;15.73;;;2.80;64.30;;;;;;4843785;29;114662;-81
2024/01/23 08:36:31;;;;;;;28.35;15.77;;;2.80;64.30;;;;;;4865588;28;117057;-81
2024/01/23 08:38:58;;;;;;;29.25;15.18;;;2.80;64.30;;;;;;4856796;28;115140;-81
2024/01/23 08:41:27;;;;;;;27.75;13.93;;;2.70;64.30;;;;;;4859260;28;114974;-81
2024/01/23 08:43:56;;;;;;;27.50;14.02;;;2.70;64.40;;;;;;4864177;28;114476;-82
2024/01/23 08:46:24;;;;;;;26.77;13.90;;;2.70;64.60;;;;;;4867254;28;115108;-81
2024/01/23 08:48:51;;;;;;;25.38;13.95;;;2.80;64.80;;;;;;4853382;28;115880;-82
2024/01/23 08:51:24;;;;;;;29.75;14.15;;;2.90;64.90;;;;;;4861228;28;114590;-82
2024/01/23 08:53:53;;;;;;;26.43;13.23;;;3.10;64.80;;;;;;4866785;28;115194;-82
2024/01/23 08:56:24;;;;;;;32.40;14.30;;;3.20;64.50;;;;;;4818248;28;118407;-82
2024/01/23 08:58:52;;;;;;;30.42;14.25;;;3.20;64.40;;;;;;4867967;28;114846;-82
2024/01/23 09:01:19;;;;;;;26.67;13.20;;;3.30;64.40;;;;;;4866957;28;115152;-82
2024/01/23 09:03:49;;;;;;;27.60;14.95;;;3.40;64.40;;;;;;4882507;28;114849;-82
2024/01/23 09:06:16;;;;;;;27.45;14.27;;;3.50;64.60;;;;;;4850045;28;116114;-82
2024/01/23 09:08:44;;;;;;;28.05;14.75;;;3.60;64.80;;;;;;4860934;28;114765;-82
2024/01/23 09:11:11;;;;;;;28.55;14.35;;;3.80;64.60;;;;;;4855729;28;114585;-82
2024/01/23 09:13:41;;;;;;;25.42;14.05;;;3.90;64.10;;;;;;4855391;28;114647;-84
2024/01/23 09:16:12;;;;;;;30.45;15.07;;;3.90;63.60;;;;;;4874806;28;115088;-82
2024/01/23 09:18:44;;;;;;;24.30;14.45;;;3.80;63.60;;;;;;4866888;28;114753;-82
2024/01/23 09:21:12;;;;;;;30.20;15.20;;;3.80;64.00;;;;;;4879661;28;114798;-82
2024/01/23 09:23:42;;;;;;;27.63;15.23;;;3.90;63.90;;;;;;4863813;28;114654;-82
2024/01/23 09:26:13;;;;;;;29.40;15.18;;;3.90;63.60;;;;;;4845018;28;118483;-82
2024/01/23 09:28:40;;;;;;;24.95;13.63;;;4.00;63.60;;;;;;4859563;28;117524;-82
2024/01/23 09:31:08;;;;;;;27.85;14.10;;;4.00;63.50;;;;;;4868258;28;114373;-82
2024/01/23 09:33:38;;;;;;;25.63;14.30;;;4.00;63.50;;;;;;4868370;28;114617;-82
2024/01/23 09:36:05;;;;;;;29.95;14.45;;;4.10;63.40;;;;;;4839065;29;118794;-84
2024/01/23 09:38:33;;;;;;;26.38;13.68;;;4.10;63.40;;;;;;4829722;29;118044;-83
2024/01/23 09:41:01;;;;;;;18.42;10.50;;;4.10;63.40;;;;;;4856625;28;114901;-81
2024/01/23 09:43:28;;;;;;;20.38;10.23;;;4.10;63.60;;;;;;4859486;28;114593;-83
2024/01/23 09:45:56;;;;;;;16.88;9.32;;;4.10;63.70;;;;;;4859854;28;115299;-81
2024/01/23 09:48:23;;;;;;;16.15;8.07;;;4.20;63.80;;;;;;4846886;28;115920;-84
2024/01/23 09:50:54;;;;;;;13.45;7.18;;;4.20;63.90;;;;;;4857255;28;115925;-82
2024/01/23 09:53:23;;;;;;;14.27;7.80;;;4.30;63.90;;;;;;4821753;28;114557;-82
2024/01/23 09:55:50;;;;;;;13.90;7.95;;;4.30;63.90;;;;;;4867898;28;115245;-82
2024/01/23 09:58:20;;;;;;;13.57;7.07;;;4.40;63.90;;;;;;4872637;28;114542;-82
2024/01/23 10:00:48;;;;;;;14.55;7.50;;;4.40;63.80;;;;;;4858095;28;115038;-82
2024/01/23 10:03:15;;;;;;;14.20;7.35;;;4.40;63.80;;;;;;4871983;28;114345;-82
2024/01/23 10:05:43;;;;;;;15.55;8.13;;;4.40;63.80;;;;;;4849128;28;117218;-80
2024/01/23 10:08:11;;;;;;;16.10;8.55;;;4.40;63.80;;;;;;4853657;28;115041;-81
2024/01/23 10:10:39;;;;;;;14.48;7.32;;;4.40;63.80;;;;;;4849606;29;114479;-81
2024/01/23 10:13:06;;;;;;;14.45;7.43;;;4.40;63.90;;;;;;4852237;29;114655;-80
2024/01/23 10:15:36;;;;;;;16.70;7.78;;;4.50;63.90;;;;;;4835233;29;116393;-83
2024/01/23 10:18:07;;;;;;;14.30;8.30;;;4.50;63.90;;;;;;4852240;28;115192;-82
2024/01/23 10:20:38;;;;;;;16.23;8.30;;;4.60;63.90;;;;;;4884073;28;114676;-83
2024/01/23 10:23:06;;;;;;;15.88;8.13;;;4.60;63.80;;;;;;4875260;28;114851;-82
2024/01/23 10:25:34;;;;;;;16.08;8.10;;;4.60;63.80;;;;;;4861553;28;115214;-82
2024/01/23 10:28:01;;;;;;;18.02;8.15;;;4.60;63.70;;;;;;4882602;28;114878;-83
2024/01/23 10:30:28;;;;;;;13.98;7.60;;;4.60;63.70;;;;;;4883991;28;114492;-82
2024/01/23 10:32:56;;;;;;;14.68;7.93;;;4.60;63.70;;;;;;4868597;28;115011;-83
2024/01/23 10:35:25;;;;;;;14.88;7.55;;;4.60;63.60;;;;;;4851463;28;118777;-82
2024/01/23 10:37:53;;;;;;;16.70;9.02;;;4.70;63.70;;;;;;4867359;28;115228;-82
2024/01/23 10:40:23;;;;;;;14.18;8.35;;;4.60;63.60;;;;;;4866256;28;114980;-82
2024/01/23 10:42:52;;;;;;;13.85;7.80;;;4.70;63.60;;;;;;4866626;28;114725;-82
2024/01/23 10:45:19;;;;;;;15.18;7.97;;;4.70;63.60;;;;;;4865857;28;115358;-84
2024/01/23 10:47:47;;;;;;;16.23;8.05;;;4.70;63.50;;;;;;4881483;28;115264;-83
2024/01/23 10:50:15;;;;;;;16.42;7.68;;;4.70;63.50;;;;;;4866570;28;114913;-83
2024/01/23 10:52:46;;;;;;;17.05;9.65;;;4.70;63.40;;;;;;4882420;28;115134;-84
2024/01/23 10:55:13;;;;;;;13.13;7.30;;;4.70;63.30;;;;;;4866771;28;115130;-83
2024/01/23 10:57:41;;;;;;;13.48;6.75;;;4.80;63.20;;;;;;4852645;28;117526;-83
2024/01/23 11:00:10;;;;;;;13.02;7.68;;;4.70;63.20;;;;;;4853339;28;114626;-82
2024/01/23 11:02:45;;;;;;;13.60;7.05;;;4.70;63.20;;;;;;4869903;28;114345;-82
2024/01/23 11:05:12;;;;;;;12.40;6.68;;;4.80;63.10;;;;;;4866991;28;115133;-83
2024/01/23 11:07:52;;;;;;;12.88;7.28;;;4.70;63.00;;;;;;4859042;28;114612;-83
2024/01/23 11:10:36;;;;;;;14.27;7.53;;;4.70;63.10;;;;;;4867018;28;115287;-82
2024/01/23 11:13:29;;;;;;;13.27;8.00;;;4.80;63.10;;;;;;4867598;28;114936;-82
2024/01/23 11:15:57;;;;;;;15.90;7.78;;;4.80;63.00;;;;;;4836751;28;115057;-83
2024/01/23 11:18:31;;;;;;;14.38;7.75;;;4.80;63.00;;;;;;4836350;28;114798;-82
2024/01/23 11:21:05;;;;;;;12.73;6.88;;;4.90;63.10;;;;;;4870842;28;114472;-83
2024/01/23 11:23:33;;;;;;;12.50;6.90;;;4.90;63.00;;;;;;4869295;28;114608;-83
2024/01/23 11:26:14;;;;;;;12.70;6.88;;;4.90;62.80;;;;;;4868013;28;115200;-81
2024/01/23 11:29:01;;;;;;;17.92;7.82;;;5.00;62.80;;;;;;4849445;28;118234;-83
2024/01/23 11:31:29;;;;;;;13.07;6.97;;;5.10;62.70;;;;;;4841585;28;114618;-83
2024/01/23 11:34:27;;;;;;;10.95;6.43;;;5.10;62.60;;;;;;4850087;28;114803;-83
2024/01/23 11:36:55;;;;;;;13.60;6.70;;;5.20;62.50;;;;;;4876246;28;115329;-82
2024/01/23 11:39:25;;;;;;;15.15;7.10;;;5.10;62.30;;;;;;4862078;28;115308;-82
2024/01/23 11:41:55;;;;;;;16.50;7.22;;;5.10;62.20;;;;;;4858958;28;114858;-82
2024/01/23 11:44:22;;;;;;;13.95;7.32;;;5.10;62.10;;;;;;4847668;28;114523;-81
2024/01/23 11:46:51;;;;;;;13.43;7.22;;;5.10;62.10;;;;;;4866144;28;115034;-82
2024/01/23 11:49:18;;;;;;;18.15;7.43;;;5.10;62.10;;;;;;4871726;28;114778;-82
2024/01/23 11:51:45;;;;;;;12.93;7.40;;;5.10;62.00;;;;;;4878880;28;115895;-83
2024/01/23 11:54:13;;;;;;;16.30;7.75;;;5.10;62.10;;;;;;4855092;28;114937;-82
2024/01/23 11:56:41;;;;;;;12.43;7.43;;;5.10;62.10;;;;;;4854851;28;115875;-83
2024/01/23 11:59:10;;;;;;;14.43;7.45;;;5.00;62.10;;;;;;4857606;28;114830;-82
2024/01/23 12:01:38;;;;;;;14.15;7.20;;;5.00;62.20;;;;;;4859719;28;114655;-81
2024/01/23 12:04:07;;;;;;;17.23;6.95;;;5.00;62.10;;;;;;4868565;28;114478;-82
2024/01/23 12:06:35;;;;;;;16.13;7.68;;;5.00;62.10;;;;;;4853265;28;115656;-83
2024/01/23 12:09:02;;;;;;;12.50;7.40;;;5.00;62.10;;;;;;4869489;28;115737;-82
2024/01/23 12:11:30;;;;;;;15.00;7.25;;;5.00;62.10;;;;;;4867878;28;114271;-83
2024/01/23 12:13:58;;;;;;;14.15;7.00;;;5.00;62.10;;;;;;4853855;28;114297;-83
2024/01/23 12:16:25;;;;;;;15.35;7.57;;;4.90;62.10;;;;;;4866233;28;115260;-82
2024/01/23 12:18:56;;;;;;;14.23;7.18;;;4.90;62.10;;;;;;4862478;28;115880;-83
2024/01/23 12:21:26;;;;;;;13.95;7.38;;;4.90;62.20;;;;;;4847075;28;114552;-81
2024/01/23 12:23:56;;;;;;;14.07;7.80;;;4.90;62.20;;;;;;4865232;28;114293;-82
2024/01/23 12:26:42;;;;;;;11.65;7.10;;;4.90;62.20;;;;;;4872288;28;115080;-82
2024/01/23 12:29:09;;;;;;;12.30;7.50;;;4.90;62.20;;;;;;4851809;28;115170;-83
2024/01/23 12:31:37;;;;;;;14.30;7.43;;;4.90;62.30;;;;;;4873908;28;114546;-84
2024/01/23 12:34:09;;;;;;;13.60;7.82;;;4.80;62.30;;;;;;4855111;28;114618;-83
2024/01/23 12:36:37;;;;;;;14.52;7.88;;;4.80;62.40;;;;;;4838322;28;118768;-82